createdAt,value
2023-03-25T00:01:02.012Z,0
2023-03-25T00:06:26.978Z,0
2023-03-25T00:12:36.430Z,0
2023-03-25T00:18:00.171Z,0
2023-03-25T00:23:26.330Z,0
2023-03-25T00:28:49.232Z,0
2023-03-25T00:34:14.822Z,0
2023-03-25T00:40:35.782Z,0
2023-03-25T00:45:58.975Z,0
2023-03-25T00:51:21.245Z,0
2023-03-25T01:02:09.615Z,0
2023-03-25T01:07:32.437Z,0
2023-03-25T01:12:55.067Z,0
2023-03-25T01:18:17.392Z,0
2023-03-25T01:23:39.673Z,0
2023-03-25T01:29:11.250Z,0
2023-03-25T01:34:33.956Z,0
2023-03-25T01:40:08.351Z,0
2023-03-25T01:45:31.159Z,0
2023-03-25T01:51:00.984Z,0
2023-03-25T01:56:23.569Z,0
2023-03-25T02:01:46.047Z,0
2023-03-25T02:12:34.329Z,0
2023-03-25T02:17:57.210Z,0
2023-03-25T02:23:19.794Z,0
2023-03-25T02:28:42.327Z,0
2023-03-25T02:34:04.898Z,0
2023-03-25T02:39:27.433Z,0
2023-03-25T02:44:49.818Z,0
2023-03-25T02:50:12.559Z,0
2023-03-25T02:55:35.318Z,0
2023-03-25T03:00:58.202Z,2
2023-03-25T03:06:31.124Z,2
2023-03-25T03:11:53.807Z,0
2023-03-25T03:17:16.823Z,0
2023-03-25T03:22:39.467Z,0
2023-03-25T03:28:01.977Z,0
2023-03-25T03:33:24.266Z,0
2023-03-25T03:38:47.207Z,0
2023-03-25T03:44:10.007Z,0
2023-03-25T03:49:32.425Z,0
2023-03-25T04:00:20.689Z,0
2023-03-25T04:05:43.197Z,0
2023-03-25T04:11:08.099Z,0
2023-03-25T04:16:30.867Z,0
2023-03-25T04:21:53.566Z,0
2023-03-25T04:27:16.155Z,0
2023-03-25T04:32:38.892Z,2
2023-03-25T04:38:11.936Z,0
2023-03-25T04:43:53.364Z,0
2023-03-25T04:49:16.018Z,0
2023-03-25T04:54:38.344Z,0
2023-03-25T05:00:01.092Z,0
2023-03-25T05:05:47.018Z,0
2023-03-25T05:11:09.794Z,0
2023-03-25T05:16:33.359Z,0
2023-03-25T05:21:56.069Z,0
2023-03-25T05:27:39.536Z,25.3
2023-03-25T05:33:02.706Z,31.1
2023-03-25T05:38:25.767Z,30
2023-03-25T05:43:49.041Z,35.5
2023-03-25T05:49:22.294Z,27.1
2023-03-25T05:54:44.885Z,33.2
2023-03-25T06:00:07.416Z,119.2
2023-03-25T06:05:58.027Z,112.7
2023-03-25T06:11:20.723Z,247.5
2023-03-25T06:22:29.670Z,75.5
2023-03-25T06:27:52.253Z,78.6
2023-03-25T06:33:44.433Z,74.7
2023-03-25T06:39:07.079Z,101.4
2023-03-25T06:44:29.822Z,251.4
2023-03-25T06:49:53.415Z,349.9
2023-03-25T06:55:16.364Z,311.7
2023-03-25T07:00:39.272Z,273.2
2023-03-25T07:06:02.109Z,261.6
2023-03-25T07:11:27.005Z,285.5
2023-03-25T07:17:01.487Z,189.8
2023-03-25T07:22:32.206Z,152
2023-03-25T07:27:55.042Z,162.5
2023-03-25T07:33:18.148Z,176.2
2023-03-25T07:38:40.278Z,182.5
2023-03-25T07:44:02.778Z,179.3
2023-03-25T07:49:27.856Z,854.6
2023-03-25T07:54:51.494Z,529.5
2023-03-25T08:00:13.998Z,454.3
2023-03-25T08:05:37.480Z,614.7
2023-03-25T08:10:59.162Z,1225.9
2023-03-25T08:16:24.271Z,2160.9
2023-03-25T08:21:47.088Z,748.7
2023-03-25T08:27:17.095Z,825.8
2023-03-25T08:32:45.972Z,955.5
2023-03-25T08:38:08.230Z,577.2
2023-03-25T08:43:30.480Z,525.2
2023-03-25T08:48:56.892Z,736.3
2023-03-25T08:54:19.102Z,965.9
2023-03-25T08:59:41.551Z,1879.7
2023-03-25T09:05:09.016Z,784
2023-03-25T09:10:32.645Z,1114.7
2023-03-25T09:15:56.321Z,2851.7
2023-03-25T09:21:19.653Z,718.3
2023-03-25T09:26:44.283Z,624.3
2023-03-25T09:32:07.035Z,3648.6
2023-03-25T09:37:30.070Z,4483
2023-03-25T09:42:53.523Z,869.1
2023-03-25T09:48:14.996Z,425
2023-03-25T09:53:36.465Z,355.8
2023-03-25T09:58:59.416Z,504.3
2023-03-25T10:04:25.531Z,2657
2023-03-25T10:09:53.198Z,3965.9
2023-03-25T10:15:14.107Z,1919.5
2023-03-25T10:20:37.794Z,532.6
2023-03-25T10:25:58.391Z,470.8
2023-03-25T10:31:19.982Z,535.4
2023-03-25T10:36:41.841Z,842.5
2023-03-25T10:42:05.619Z,937.9
2023-03-25T10:47:33.254Z,934
2023-03-25T10:52:55.835Z,1146.7
2023-03-25T10:58:36.699Z,834.2
2023-03-25T11:03:57.955Z,1647.5
2023-03-25T11:09:21.870Z,658.3
2023-03-25T11:14:44.122Z,2479.3
2023-03-25T11:20:09.065Z,2698
2023-03-25T11:25:30.391Z,1770.6
2023-03-25T11:30:53.112Z,4507
2023-03-25T11:36:18.640Z,3532.3
2023-03-25T11:41:41.448Z,4610.9
2023-03-25T11:47:05.179Z,1527.1
2023-03-25T11:52:27.500Z,4345.9
2023-03-25T11:57:50.659Z,1312.7
2023-03-25T12:03:12.125Z,1747.6
2023-03-25T12:08:37.082Z,3887
2023-03-25T12:13:59.834Z,1201.2
2023-03-25T12:19:20.724Z,1483.7
2023-03-25T12:24:41.957Z,1245.5
2023-03-25T12:35:44.616Z,1793.8
2023-03-25T12:41:09.800Z,1093.5
2023-03-25T12:46:30.270Z,1004.5
2023-03-25T12:51:51.664Z,468.8
2023-03-25T12:57:14.037Z,521.9
2023-03-25T13:02:40.671Z,390.1
2023-03-25T13:08:03.202Z,167.1
2023-03-25T13:13:25.430Z,83.2
2023-03-25T13:18:47.789Z,91.8
2023-03-25T13:24:13.037Z,218.4
2023-03-25T13:29:36.035Z,248.5
2023-03-25T13:34:58.871Z,144.2
2023-03-25T13:40:21.352Z,152.1
2023-03-25T13:45:44.950Z,1495.1
2023-03-25T13:51:08.258Z,781.8
2023-03-25T13:56:32.439Z,1105.1
2023-03-25T14:02:02.902Z,2734.9
2023-03-25T14:07:26.757Z,1339.3
2023-03-25T14:12:46.424Z,387.8
2023-03-25T14:18:08.134Z,685
2023-03-25T14:23:44.978Z,543.3
2023-03-25T14:29:06.828Z,1094.4
2023-03-25T14:34:40.670Z,309.3
2023-03-25T14:40:02.946Z,329.2
2023-03-25T14:45:34.880Z,1052.2
2023-03-25T14:50:57.194Z,816.4
2023-03-25T14:56:25.635Z,2918.1
2023-03-25T15:01:48.669Z,738.6
2023-03-25T15:07:09.454Z,302.6
2023-03-25T15:12:31.720Z,758.5
2023-03-25T15:17:55.002Z,572.7
2023-03-25T15:23:19.741Z,338.2
2023-03-25T15:28:41.953Z,289.2
2023-03-25T15:34:21.427Z,218
2023-03-25T15:39:44.164Z,286.4
2023-03-25T15:45:06.851Z,189.2
2023-03-25T15:50:29.308Z,267.9
2023-03-25T15:55:52.041Z,160.2
2023-03-25T16:01:15.052Z,140.2
2023-03-25T16:06:44.157Z,105.9
2023-03-25T16:12:06.792Z,374.9
2023-03-25T16:17:29.895Z,174.5
2023-03-25T16:22:59.763Z,106.8
2023-03-25T16:28:23.517Z,148.6
2023-03-25T16:33:46.299Z,243
2023-03-25T16:39:09.811Z,180
2023-03-25T16:44:33.372Z,207.9
2023-03-25T16:49:55.801Z,63.2
2023-03-25T16:55:44.593Z,142.4
2023-03-25T17:01:07.597Z,269.2
2023-03-25T17:06:30.074Z,151.9
2023-03-25T17:11:52.535Z,58.9
2023-03-25T17:17:15.280Z,42.9
2023-03-25T17:22:37.952Z,39.3
2023-03-25T17:28:09.678Z,34.9
2023-03-25T17:33:32.489Z,34.1
2023-03-25T17:38:55.330Z,31.4
2023-03-25T17:44:17.722Z,28.2
2023-03-25T17:49:40.301Z,23
2023-03-25T17:55:02.882Z,12
2023-03-25T18:00:25.402Z,7
2023-03-25T18:05:48.044Z,3
2023-03-25T18:11:10.695Z,0
2023-03-25T18:16:33.238Z,0
2023-03-25T18:22:21.693Z,0
2023-03-25T18:27:48.224Z,0
2023-03-25T18:33:12.270Z,0
2023-03-25T18:44:06.803Z,0
2023-03-25T18:49:34.181Z,0
2023-03-25T18:55:03.077Z,0
2023-03-25T19:00:26.322Z,0
2023-03-25T19:05:55.996Z,0
2023-03-25T19:11:22.956Z,0
2023-03-25T19:17:05.168Z,0
2023-03-25T19:22:30.289Z,0
2023-03-25T19:27:53.433Z,0
2023-03-25T19:33:18.972Z,0
2023-03-25T19:38:41.936Z,0
2023-03-25T19:44:05.696Z,0
2023-03-25T19:49:41.394Z,0
2023-03-25T19:55:04.093Z,0
2023-03-25T20:00:28.681Z,1
2023-03-25T20:05:58.150Z,0
2023-03-25T20:11:24.071Z,0
2023-03-25T20:17:06.728Z,0
2023-03-25T20:22:29.188Z,0
2023-03-25T20:27:55.159Z,0
2023-03-25T20:33:38.038Z,0
2023-03-25T20:39:01.112Z,0
2023-03-25T20:44:45.821Z,0
2023-03-25T20:50:08.604Z,0
2023-03-25T20:55:30.960Z,0
2023-03-25T21:00:54.044Z,2
2023-03-25T21:06:28.748Z,0
2023-03-25T21:11:51.551Z,0
2023-03-25T21:17:21.938Z,0
2023-03-25T21:22:45.502Z,0
2023-03-25T21:28:08.807Z,0
2023-03-25T21:33:40.231Z,0
2023-03-25T21:44:39.124Z,0
2023-03-25T21:50:24.043Z,1
2023-03-25T21:55:49.845Z,0
2023-03-25T22:01:12.509Z,0
2023-03-25T22:06:35.913Z,0
2023-03-25T22:11:58.972Z,0
2023-03-25T22:17:31.882Z,0
2023-03-25T22:22:55.140Z,0
2023-03-25T22:28:17.765Z,0
2023-03-25T22:33:44.154Z,0
2023-03-25T22:39:09.707Z,0
2023-03-25T22:44:32.160Z,0
2023-03-25T22:50:01.957Z,0
2023-03-25T22:55:26.105Z,0
2023-03-25T23:00:48.587Z,0
2023-03-25T23:06:14.574Z,0
2023-03-25T23:11:38.662Z,0
2023-03-25T23:17:01.752Z,0
2023-03-25T23:22:25.094Z,0
2023-03-25T23:28:11.428Z,0
2023-03-25T23:33:35.733Z,0
2023-03-25T23:39:01.654Z,0
2023-03-25T23:44:25.104Z,0
